Appam, North Dakota
Current Conditions -  °F | °C
As of 2:35 AM on Thursday 23 Oct 2014 (Local Time) from KD50 Reporting Station
Unknown Precip Unknown Precip  
Wind Chill:   Ceiling: Unl
Heat Index:   Visibility: 10mi
Dew Point:   Wind: 12mph
Humidity: 87%   Direction: 200°SSW
Pressure: 29.84"   Gusts: NA
Location:  48.59°N, 103.406°W
Report Text: KD50 230735Z AUTO 20010KT 10SM UP CLR 04/02 A2984 RMK AO2
Loading
Personal Weather Stations






























Interactive Weather Map
Tropical Storm Tracking
New forecast layout! Learn more

10-Day Weather Forecast

Advertisements
Track Severe Weather on mobile